Time;durP1;ratioP1;P1;durP2;ratioP2;P2;SDS_P1;SDS_P2;PMS_P1;PMS_P2;Temp;Humidity;BMP_temperature;BMP_pressure;BME280_temperature;BME280_humidity;BME280_pressure;Samples;Min_cycle;Max_cycle;Signal;HPM_P1;HPM_P2
2023/05/04 00:01:20;;;;;;;;;;;;;;;11.98;96.83;100075.53;5113811;28;19912;-81
2023/05/04 00:03:45;;;;;;;;;;;;;;;11.91;97.32;100080.88;5113682;28;20049;-81
2023/05/04 00:06:11;;;;;;;;;;;;;;;11.80;97.75;100087.22;5113948;28;20076;-82
2023/05/04 00:08:36;;;;;;;;;;;;;;;11.93;97.76;100087.09;5112995;28;20398;-81
2023/05/04 00:11:01;;;;;;;;;;;;;;;11.92;97.36;100083.53;5113379;28;19921;-81
2023/05/04 00:13:27;;;;;;;;;;;;;;;12.00;97.45;100079.03;5113652;28;19912;-81
2023/05/04 00:15:52;;;;;;;;;;;;;;;11.81;98.64;100067.78;5113970;28;19912;-81
2023/05/04 00:18:17;;;;;;;;;;;;;;;11.63;99.60;100042.53;5113384;28;20385;-81
2023/05/04 00:20:42;;;;;;;;;;;;;;;11.82;99.39;100073.97;5113096;28;20003;-80
2023/05/04 00:23:08;;;;;;;;;;;;;;;11.69;99.92;100065.31;5112706;28;19947;-81
2023/05/04 00:25:33;;;;;;;;;;;;;;;11.90;99.08;100066.81;5112941;28;20408;-81
2023/05/04 00:27:58;;;;;;;;;;;;;;;11.90;98.98;100064.16;5113103;28;19915;-80
2023/05/04 00:30:24;;;;;;;;;;;;;;;11.89;99.43;100064.19;5112833;28;19916;-81
2023/05/04 00:32:49;;;;;;;;;;;;;;;11.81;100.00;100062.50;5113229;28;19915;-80
2023/05/04 00:35:15;;;;;;;;;;;;;;;11.79;100.00;100056.38;5094877;28;19957;-80
2023/05/04 00:37:42;;;;;;;;;;;;;;;12.05;98.78;100056.91;5113162;28;19916;-81
2023/05/04 00:40:10;;;;;;;;;;;;;;;11.93;99.16;100058.88;5112132;28;19931;-81
2023/05/04 00:42:35;;;;;;;;;;;;;;;11.61;100.00;100054.84;5113142;28;19919;-81
2023/05/04 00:45:01;;;;;;;;;;;;;;;11.70;100.00;100058.28;5113134;28;19915;-80
2023/05/04 00:47:28;;;;;;;;;;;;;;;11.79;100.00;100056.38;5111693;28;19916;-81
2023/05/04 00:49:54;;;;;;;;;;;;;;;11.90;100.00;100064.16;5112639;28;19908;-80
2023/05/04 00:52:19;;;;;;;;;;;;;;;11.85;100.00;100059.81;5112262;28;19999;-80
2023/05/04 00:54:45;;;;;;;;;;;;;;;11.79;100.00;100050.25;5112136;28;19994;-80
2023/05/04 00:57:11;;;;;;;;;;;;;;;11.82;100.00;100055.47;5111955;28;19912;-81
2023/05/04 00:59:36;;;;;;;;;;;;;;;12.13;99.47;100061.22;5113168;28;19912;-80
2023/05/04 01:02:02;;;;;;;;;;;;;;;12.04;98.91;100061.34;5112384;28;19911;-80
2023/05/04 01:04:27;;;;;;;;;;;;;;;12.08;98.83;100056.88;5111862;28;19926;-80
2023/05/04 01:07:16;;;;;;;;;;;;;;;12.03;99.42;100062.22;5110148;28;19926;-81
2023/05/04 01:09:48;;;;;;;;;;;;;;;11.73;100.00;100045.91;4990102;28;20523;-79
2023/05/04 01:12:14;;;;;;;;;;;;;;;11.92;100.00;100057.09;4990001;28;19913;-80
2023/05/04 01:14:40;;;;;;;;;;;;;;;12.07;100.00;100056.00;5007725;28;19980;-80
2023/05/04 01:17:06;;;;;;;;;;;;;;;12.10;100.00;100063.03;5009453;28;19971;-80
2023/05/04 01:19:32;;;;;;;;;;;;;;;12.25;98.55;100053.97;5008866;28;19956;-81
2023/05/04 01:21:57;;;;;;;;;;;;;;;12.24;99.02;100049.59;5008713;28;19958;-82
2023/05/04 01:24:26;;;;;;;;;;;;;;;12.11;98.74;100043.59;5009504;28;20004;-82
2023/05/04 01:26:56;;;;;;;;;;;;;;;12.15;99.38;100034.72;5000361;28;19917;-81
2023/05/04 01:29:30;;;;;;;;;;;;;;;11.97;99.39;100026.22;4990020;28;19918;-81
2023/05/04 01:31:56;;;;;;;;;;;;;;;11.99;99.46;100042.03;4989687;28;19969;-82
2023/05/04 01:34:22;;;;;;;;;;;;;;;12.05;99.28;100041.06;4990387;28;20319;-81
2023/05/04 01:36:47;;;;;;;;;;;;;;;12.04;99.45;100029.63;4989484;28;20375;-82
2023/05/04 01:39:12;;;;;;;;;;;;;;;12.02;98.91;100025.25;4990641;28;19932;-80
2023/05/04 01:41:38;;;;;;;;;;;;;;;11.90;99.72;100023.66;4991148;28;19918;-81
2023/05/04 01:44:03;;;;;;;;;;;;;;;11.86;100.00;100022.78;5002660;28;19918;-80
2023/05/04 01:46:29;;;;;;;;;;;;;;;11.85;100.00;100010.50;5032786;28;20389;-80
2023/05/04 01:48:54;;;;;;;;;;;;;;;11.81;100.00;100003.50;5102985;28;19919;-81
2023/05/04 01:51:19;;;;;;;;;;;;;;;12.03;99.68;100006.72;5111651;28;19912;-81
2023/05/04 01:53:45;;;;;;;;;;;;;;;12.12;98.58;100001.28;5111380;28;20399;-81
2023/05/04 01:56:10;;;;;;;;;;;;;;;12.21;98.05;100009.97;5111752;28;19908;-80
2023/05/04 01:58:35;;;;;;;;;;;;;;;12.11;97.43;100011.88;5111093;28;20354;-80
2023/05/04 02:01:01;;;;;;;;;;;;;;;12.22;97.13;100024.91;5111299;28;19911;-81
2023/05/04 02:03:26;;;;;;;;;;;;;;;12.25;96.14;100035.44;5111036;28;19912;-82
2023/05/04 02:05:51;;;;;;;;;;;;;;;12.21;96.94;100044.34;5110943;28;19969;-81
2023/05/04 02:08:17;;;;;;;;;;;;;;;12.18;96.87;100034.69;5111559;28;20006;-80
2023/05/04 02:10:42;;;;;;;;;;;;;;;12.37;95.86;100032.59;5110825;28;19919;-81
2023/05/04 02:13:07;;;;;;;;;;;;;;;12.45;95.37;100032.47;5110692;28;19922;-81
2023/05/04 02:15:33;;;;;;;;;;;;;;;12.39;94.80;100033.47;5111135;28;19912;-81
2023/05/04 02:17:58;;;;;;;;;;;;;;;12.50;94.30;100042.09;5111028;28;19919;-81
2023/05/04 02:20:23;;;;;;;;;;;;;;;12.69;93.55;100047.91;5110928;28;19920;-81
2023/05/04 02:22:48;;;;;;;;;;;;;;;12.80;92.58;100050.38;5111042;28;20291;-81
2023/05/04 02:25:14;;;;;;;;;;;;;;;12.67;92.88;100041.78;5111271;28;19933;-80
2023/05/04 02:27:40;;;;;;;;;;;;;;;12.61;92.17;100041.03;5111019;28;19915;-80
2023/05/04 02:30:05;;;;;;;;;;;;;;;12.59;92.69;100043.72;5111235;28;19911;-80
2023/05/04 02:32:31;;;;;;;;;;;;;;;12.65;92.37;100059.47;5109163;28;19970;-81
2023/05/04 02:34:56;;;;;;;;;;;;;;;12.76;92.35;100056.63;5111097;28;20332;-82
2023/05/04 02:37:21;;;;;;;;;;;;;;;12.75;92.07;100054.03;5111406;28;20345;-80
2023/05/04 02:39:47;;;;;;;;;;;;;;;12.80;91.82;100057.44;5111457;28;20432;-80
2023/05/04 02:42:12;;;;;;;;;;;;;;;12.58;92.16;100051.66;5111000;28;19939;-80
2023/05/04 02:44:38;;;;;;;;;;;;;;;12.53;92.91;100049.97;5092411;28;19915;-80
2023/05/04 02:47:04;;;;;;;;;;;;;;;12.51;93.18;100061.47;5110922;28;19916;-80
2023/05/04 02:49:30;;;;;;;;;;;;;;;12.43;93.75;100061.59;5092369;28;20401;-80
2023/05/04 02:51:55;;;;;;;;;;;;;;;12.54;92.84;100057.03;5111319;28;19946;-81
2023/05/04 02:54:20;;;;;;;;;;;;;;;12.52;92.35;100060.59;5110285;28;19971;-80
2023/05/04 02:56:45;;;;;;;;;;;;;;;12.39;93.96;100051.09;5110860;28;19916;-80
2023/05/04 02:59:11;;;;;;;;;;;;;;;12.50;92.81;100051.81;5110775;28;19954;-81
2023/05/04 03:01:36;;;;;;;;;;;;;;;12.32;93.17;100067.06;5110826;28;20382;-81
2023/05/04 03:04:02;;;;;;;;;;;;;;;12.33;92.77;100071.47;5111104;28;19991;-81
2023/05/04 03:06:27;;;;;;;;;;;;;;;12.26;93.23;100074.25;5113722;28;19927;-81
2023/05/04 03:08:52;;;;;;;;;;;;;;;12.22;94.34;100069.88;5114031;28;20294;-81
2023/05/04 03:11:18;;;;;;;;;;;;;;;12.30;93.18;100081.22;5113385;28;19916;-81
2023/05/04 03:13:43;;;;;;;;;;;;;;;12.25;93.46;100068.09;5111836;28;19918;-80
2023/05/04 03:16:08;;;;;;;;;;;;;;;12.35;93.07;100082.88;5113529;28;19918;-80
2023/05/04 03:18:33;;;;;;;;;;;;;;;12.45;91.37;100057.19;5113733;28;19961;-80
2023/05/04 03:20:59;;;;;;;;;;;;;;;12.56;91.29;100079.91;5113803;28;19911;-80
2023/05/04 03:23:25;;;;;;;;;;;;;;;12.48;92.04;100088.88;5113693;28;19922;-81
2023/05/04 03:25:51;;;;;;;;;;;;;;;12.33;92.48;100094.41;5114209;28;20002;-80
2023/05/04 03:28:16;;;;;;;;;;;;;;;12.24;93.61;100089.28;5114071;28;19923;-82
2023/05/04 03:30:41;;;;;;;;;;;;;;;12.12;94.45;100095.59;5114350;28;19911;-81
2023/05/04 03:33:07;;;;;;;;;;;;;;;12.08;95.11;100092.16;5114118;28;19916;-80
2023/05/04 03:35:32;;;;;;;;;;;;;;;12.18;95.12;100087.59;5114250;28;19976;-81
2023/05/04 03:37:57;;;;;;;;;;;;;;;12.28;95.01;100097.13;5114104;28;19919;-82
2023/05/04 03:40:23;;;;;;;;;;;;;;;12.54;93.04;100094.06;5113703;28;19984;-83
2023/05/04 03:42:49;;;;;;;;;;;;;;;12.60;92.18;100092.22;5113789;28;20438;-82
2023/05/04 03:45:14;;;;;;;;;;;;;;;12.66;91.26;100089.44;5114201;28;20354;-83
2023/05/04 03:47:40;;;;;;;;;;;;;;;12.62;91.84;100088.66;5113472;28;20015;-83
2023/05/04 03:50:05;;;;;;;;;;;;;;;12.70;91.09;100081.44;5095516;28;20056;-83
2023/05/04 03:52:31;;;;;;;;;;;;;;;12.93;89.95;100071.31;5113313;28;19951;-84
2023/05/04 03:54:56;;;;;;;;;;;;;;;12.93;89.94;100076.63;5113835;28;19951;-82
2023/05/04 03:57:23;;;;;;;;;;;;;;;12.80;89.38;100049.50;5113794;28;19919;-81
2023/05/04 03:59:48;;;;;;;;;;;;;;;12.72;90.61;100065.53;5113955;28;19915;-82
2023/05/04 04:02:13;;;;;;;;;;;;;;;12.71;91.46;100069.06;5111369;28;19915;-83
2023/05/04 04:04:39;;;;;;;;;;;;;;;12.80;91.36;100078.63;5111061;28;20002;-82
2023/05/04 04:07:04;;;;;;;;;;;;;;;12.84;90.74;100085.63;5111030;28;20011;-82
2023/05/04 04:09:29;;;;;;;;;;;;;;;12.75;90.74;100088.44;5111713;28;19961;-82
2023/05/04 04:11:55;;;;;;;;;;;;;;;12.88;91.00;100089.94;5111415;28;19923;-82
2023/05/04 04:14:20;;;;;;;;;;;;;;;13.01;89.96;100101.19;5112325;28;19929;-86
2023/05/04 04:16:45;;;;;;;;;;;;;;;13.23;88.61;100091.91;5109022;28;19927;-82
2023/05/04 04:19:10;;;;;;;;;;;;;;;13.08;88.70;100089.56;5092832;28;19916;-83
2023/05/04 04:21:36;;;;;;;;;;;;;;;12.67;90.86;100088.56;5108020;28;19943;-83
2023/05/04 04:24:01;;;;;;;;;;;;;;;12.36;93.45;100092.59;5113266;28;20069;-83
2023/05/04 04:26:27;;;;;;;;;;;;;;;12.62;93.02;100083.34;5094974;28;20001;-81
2023/05/04 04:28:52;;;;;;;;;;;;;;;12.77;91.32;100081.31;5113268;28;19912;-80
2023/05/04 04:31:18;;;;;;;;;;;;;;;12.71;92.58;100084.94;5095494;28;19927;-81
2023/05/04 04:33:43;;;;;;;;;;;;;;;12.70;91.67;100097.31;5092899;28;20306;-82
2023/05/04 04:36:09;;;;;;;;;;;;;;;13.02;90.17;100101.16;5111936;28;19938;-82
2023/05/04 04:38:36;;;;;;;;;;;;;;;13.24;89.35;100098.97;5110145;28;20399;-81
2023/05/04 04:41:02;;;;;;;;;;;;;;;13.11;88.67;100108.06;5098791;28;19915;-85
2023/05/04 04:43:27;;;;;;;;;;;;;;;13.02;89.55;100113.50;5105326;28;20401;-82
2023/05/04 04:45:52;;;;;;;;;;;;;;;12.79;91.19;100105.97;5111248;28;19927;-80
2023/05/04 04:48:20;;;;;;;;;;;;;;;12.82;91.30;100114.78;5111945;28;19922;-82
2023/05/04 04:50:46;;;;;;;;;;;;;;;12.71;92.46;100114.97;5091627;28;20610;-82
2023/05/04 04:53:11;;;;;;;;;;;;;;;12.51;93.12;100117.03;5099090;28;19911;-81
2023/05/04 04:55:36;;;;;;;;;;;;;;;12.50;93.85;100108.22;5094256;28;19935;-82
2023/05/04 04:58:02;;;;;;;;;;;;;;;12.56;93.67;100117.84;5094525;28;20420;-83
2023/05/04 05:00:27;;;;;;;;;;;;;;;12.63;93.70;100116.84;5100321;28;19919;-82
2023/05/04 05:02:53;;;;;;;;;;;;;;;12.74;93.92;100114.00;5108704;28;19923;-82
2023/05/04 05:05:19;;;;;;;;;;;;;;;12.91;92.65;100108.41;5091956;28;20381;-82
2023/05/04 05:07:44;;;;;;;;;;;;;;;12.89;91.82;100112.88;5105128;28;19919;-83
2023/05/04 05:10:09;;;;;;;;;;;;;;;13.18;90.04;100116.78;5108298;28;20002;-82
2023/05/04 05:12:35;;;;;;;;;;;;;;;13.28;90.13;100115.66;5111756;28;19915;-83
2023/05/04 05:15:03;;;;;;;;;;;;;;;13.33;89.51;100121.81;5110271;28;19922;-82
2023/05/04 05:17:28;;;;;;;;;;;;;;;13.31;88.58;100120.91;5093390;28;20376;-85
2023/05/04 05:19:53;;;;;;;;;;;;;;;13.07;89.92;100123.13;5112760;28;19911;-83
2023/05/04 05:22:18;;;;;;;;;;;;;;;12.78;90.75;100109.56;5107839;28;19951;-82
2023/05/04 05:24:44;;;;;;;;;;;;;;;12.82;91.37;100121.81;5103588;28;19941;-83
2023/05/04 05:27:09;;;;;;;;;;;;;;;13.08;91.06;100124.00;5111611;28;19992;-82
2023/05/04 05:29:35;;;;;;;;;;;;;;;13.16;89.69;100122.09;5110160;28;19912;-83
2023/05/04 05:32:01;;;;;;;;;;;;;;;13.15;89.60;100116.84;5111446;28;20026;-82
2023/05/04 05:34:26;;;;;;;;;;;;;;;13.34;89.77;100127.97;5112296;28;19947;-83
2023/05/04 05:36:52;;;;;;;;;;;;;;;13.18;89.19;100130.88;5111688;28;19911;-82
2023/05/04 05:39:17;;;;;;;;;;;;;;;13.36;88.79;100129.69;5112052;28;19922;-83
2023/05/04 05:41:42;;;;;;;;;;;;;;;13.04;89.91;100139.06;5112230;28;19918;-82
2023/05/04 05:44:08;;;;;;;;;;;;;;;13.20;89.94;100141.44;5111732;28;19919;-83
2023/05/04 05:46:33;;;;;;;;;;;;;;;13.05;90.19;100140.84;5111565;28;20301;-82
2023/05/04 05:48:58;;;;;;;;;;;;;;;12.92;90.00;100136.66;5111977;28;19943;-82
2023/05/04 05:51:24;;;;;;;;;;;;;;;13.07;90.16;100144.31;5112163;28;19911;-82
2023/05/04 05:53:49;;;;;;;;;;;;;;;13.19;90.23;100143.22;5112171;28;20274;-82
2023/05/04 05:56:14;;;;;;;;;;;;;;;13.06;90.10;100152.28;5111870;28;20385;-83
2023/05/04 05:58:40;;;;;;;;;;;;;;;13.13;90.65;100158.34;5111851;28;19935;-83
2023/05/04 06:01:05;;;;;;;;;;;;;;;13.19;89.57;100161.78;5111819;28;19912;-82
2023/05/04 06:03:31;;;;;;;;;;;;;;;13.19;89.72;100156.47;5112336;28;20056;-82
2023/05/04 06:05:56;;;;;;;;;;;;;;;13.18;89.89;100159.16;5111431;28;19983;-83
2023/05/04 06:08:21;;;;;;;;;;;;;;;13.45;88.98;100160.41;5111418;28;20698;-83
2023/05/04 06:10:47;;;;;;;;;;;;;;;13.19;89.10;100148.53;5111656;28;20006;-83
2023/05/04 06:13:12;;;;;;;;;;;;;;;13.06;89.60;100155.81;5111143;28;19911;-82
2023/05/04 06:15:38;;;;;;;;;;;;;;;13.18;90.54;100151.22;5111434;28;19923;-83
2023/05/04 06:18:03;;;;;;;;;;;;;;;13.18;89.82;100156.50;5111557;28;19912;-81
2023/05/04 06:20:28;;;;;;;;;;;;;;;13.08;90.14;100151.38;5111626;28;19947;-82
2023/05/04 06:22:54;;;;;;;;;;;;;;;13.38;90.05;100158.81;5111478;28;19965;-83
2023/05/04 06:25:19;;;;;;;;;;;;;;;13.35;89.53;100167.69;5111096;28;20334;-83
2023/05/04 06:27:44;;;;;;;;;;;;;;;13.44;88.57;100164.00;5111125;28;19911;-83
2023/05/04 06:30:10;;;;;;;;;;;;;;;13.41;88.42;100167.56;5111166;28;20287;-83
2023/05/04 06:32:35;;;;;;;;;;;;;;;13.61;88.05;100153.06;5111020;28;20006;-83
2023/05/04 06:35:01;;;;;;;;;;;;;;;13.52;87.59;100151.47;5111203;28;20007;-83
2023/05/04 06:37:26;;;;;;;;;;;;;;;13.40;87.80;100164.94;5111080;28;20439;-83
2023/05/04 06:39:51;;;;;;;;;;;;;;;13.64;86.95;100165.38;5110328;28;19947;-84
2023/05/04 06:42:17;;;;;;;;;;;;;;;13.49;87.37;100163.91;5110916;28;19916;-83
2023/05/04 06:44:42;;;;;;;;;;;;;;;13.47;88.63;100163.94;5110963;28;19919;-83
2023/05/04 06:47:07;;;;;;;;;;;;;;;13.58;88.64;100151.34;5110743;28;19923;-84
2023/05/04 06:49:33;;;;;;;;;;;;;;;13.82;87.17;100150.88;5111112;28;19999;-83
2023/05/04 06:51:59;;;;;;;;;;;;;;;13.66;87.10;100145.88;5110704;28;19919;-82
2023/05/04 06:54:25;;;;;;;;;;;;;;;13.69;87.46;100148.47;5110729;28;19915;-83
2023/05/04 06:56:50;;;;;;;;;;;;;;;13.72;86.93;100144.91;5110696;28;19926;-83
2023/05/04 06:59:16;;;;;;;;;;;;;;;13.93;86.27;100148.84;5110936;28;19912;-83
2023/05/04 07:01:41;;;;;;;;;;;;;;;14.02;84.71;100150.44;5110196;28;19970;-83
2023/05/04 07:04:06;;;;;;;;;;;;;;;14.10;84.43;100148.47;5110895;28;19919;-83
2023/05/04 07:06:32;;;;;;;;;;;;;;;14.31;83.33;100158.59;5110805;28;20265;-83
2023/05/04 07:08:58;;;;;;;;;;;;;;;14.36;82.43;100158.50;5110360;28;20597;-83
2023/05/04 07:11:23;;;;;;;;;;;;;;;14.51;81.98;100160.78;5110341;28;19980;-82
2023/05/04 07:13:49;;;;;;;;;;;;;;;14.62;81.53;100163.22;5110758;28;19998;-85
2023/05/04 07:16:14;;;;;;;;;;;;;;;14.70;81.20;100156.88;5091564;28;19915;-85
2023/05/04 07:18:40;;;;;;;;;;;;;;;14.68;80.53;100155.09;5092069;28;20292;-85
2023/05/04 07:21:11;;;;;;;;;;;;;;;14.68;80.42;100155.09;5091810;28;19915;-85
2023/05/04 07:23:37;;;;;;;;;;;;;;;14.76;80.19;100157.56;5091887;28;20249;-85
2023/05/04 07:26:03;;;;;;;;;;;;;;;14.55;80.58;100151.00;5091815;28;19922;-83
2023/05/04 07:28:28;;;;;;;;;;;;;;;14.67;81.04;100161.34;5091834;28;19970;-85
2023/05/04 07:30:53;;;;;;;;;;;;;;;14.67;80.44;100158.69;5109762;28;19920;-84
2023/05/04 07:33:19;;;;;;;;;;;;;;;14.57;80.31;100158.91;5092270;28;19919;-82
2023/05/04 07:35:44;;;;;;;;;;;;;;;14.40;80.86;100157.53;5110432;28;19912;-84
2023/05/04 07:38:10;;;;;;;;;;;;;;;14.29;81.75;100157.78;5110349;28;19912;-83
2023/05/04 07:40:35;;;;;;;;;;;;;;;13.93;82.74;100156.81;5110196;28;20312;-82
2023/05/04 07:43:00;;;;;;;;;;;;;;;13.92;82.84;100163.91;5109854;28;20424;-83
2023/05/04 07:45:25;;;;;;;;;;;;;;;13.95;83.51;100155.00;5110079;28;19912;-82
2023/05/04 07:47:51;;;;;;;;;;;;;;;13.92;83.42;100155.09;5110580;28;19911;-82
2023/05/04 07:50:16;;;;;;;;;;;;;;;14.04;83.67;100154.81;5111856;28;20358;-83
2023/05/04 07:52:44;;;;;;;;;;;;;;;14.15;84.21;100146.63;5114173;28;19973;-82
2023/05/04 07:55:09;;;;;;;;;;;;;;;14.17;83.27;100146.59;5113905;28;20006;-83
2023/05/04 07:57:36;;;;;;;;;;;;;;;14.18;83.78;100146.56;5113885;28;19958;-82
2023/05/04 08:00:03;;;;;;;;;;;;;;;14.48;82.63;100154.69;5113786;28;19911;-82
2023/05/04 08:02:28;;;;;;;;;;;;;;;14.39;81.60;100157.56;5113368;28;20019;-82
2023/05/04 08:04:55;;;;;;;;;;;;;;;14.24;82.26;100156.13;5113308;28;20019;-82
2023/05/04 08:07:21;;;;;;;;;;;;;;;14.05;82.49;100156.53;5113159;28;19912;-82
2023/05/04 08:09:46;;;;;;;;;;;;;;;14.21;82.80;100164.16;5113737;28;19912;-82
2023/05/04 08:12:12;;;;;;;;;;;;;;;14.27;81.33;100167.56;5113686;28;20301;-82
2023/05/04 08:14:38;;;;;;;;;;;;;;;14.34;80.84;100165.63;5113408;28;19923;-83
2023/05/04 08:17:03;;;;;;;;;;;;;;;14.51;80.40;100167.91;5113140;28;19912;-82
2023/05/04 08:19:28;;;;;;;;;;;;;;;14.30;80.62;100166.59;5113809;28;19912;-82
2023/05/04 08:21:54;;;;;;;;;;;;;;;14.15;81.14;100171.34;5113195;28;19912;-82
2023/05/04 08:24:19;;;;;;;;;;;;;;;14.16;81.24;100153.66;5113011;28;19973;-82
2023/05/04 08:26:44;;;;;;;;;;;;;;;14.46;81.37;100172.44;5113175;28;19911;-82
2023/05/04 08:29:10;;;;;;;;;;;;;;;14.09;83.09;100171.50;5113051;28;19911;-82
2023/05/04 08:31:35;;;;;;;;;;;;;;;14.13;82.55;100175.84;5113716;28;19944;-82
2023/05/04 08:34:01;;;;;;;;;;;;;;;14.48;81.02;100170.63;5112954;28;19968;-82
2023/05/04 08:36:26;;;;;;;;;;;;;;;14.35;81.07;100170.03;5112883;28;20010;-83
2023/05/04 08:38:52;;;;;;;;;;;;;;;14.31;81.41;100166.56;5094294;28;19919;-84
2023/05/04 08:41:18;;;;;;;;;;;;;;;14.45;81.03;100170.69;5094470;28;19984;-85
2023/05/04 08:43:45;;;;;;;;;;;;;;;14.50;80.59;100172.34;5112903;28;19912;-84
2023/05/04 08:46:11;;;;;;;;;;;;;;;14.80;78.54;100172.53;5113291;28;19912;-84
2023/05/04 08:48:36;;;;;;;;;;;;;;;14.79;78.87;100168.13;5112962;28;19911;-83
2023/05/04 08:51:03;;;;;;;;;;;;;;;15.13;78.92;100167.25;5111506;28;19923;-86
2023/05/04 08:53:30;;;;;;;;;;;;;;;14.99;77.62;100175.59;5111972;28;19938;-82
2023/05/04 08:55:58;;;;;;;;;;;;;;;14.98;76.77;100175.63;5111577;28;20370;-83
2023/05/04 08:58:24;;;;;;;;;;;;;;;15.25;77.65;100174.06;5111475;28;19912;-82
2023/05/04 09:00:49;;;;;;;;;;;;;;;15.42;76.72;100165.63;5111175;28;19911;-84
2023/05/04 09:03:15;;;;;;;;;;;;;;;15.26;76.72;100161.63;5111850;28;19922;-82
2023/05/04 09:05:44;;;;;;;;;;;;;;;14.90;77.46;100169.66;5112159;28;20309;-82
2023/05/04 09:08:10;;;;;;;;;;;;;;;14.97;77.32;100173.91;5111240;28;20293;-81
2023/05/04 09:10:35;;;;;;;;;;;;;;;15.05;76.69;100171.91;5109286;28;19915;-84
2023/05/04 09:13:01;;;;;;;;;;;;;;;15.04;77.04;100172.81;5102323;28;20004;-83
2023/05/04 09:15:26;;;;;;;;;;;;;;;15.15;76.10;100162.81;5100121;28;20020;-87
2023/05/04 09:17:54;;;;;;;;;;;;;;;15.27;76.40;100169.56;5098744;28;19929;-87
2023/05/04 09:20:19;;;;;;;;;;;;;;;15.32;76.14;100170.31;5096065;28;19915;-85
2023/05/04 09:22:45;;;;;;;;;;;;;;;15.18;77.18;100180.44;5101363;28;19972;-84
2023/05/04 09:25:11;;;;;;;;;;;;;;;14.88;79.57;100174.13;5091108;28;19950;-85
2023/05/04 09:27:40;;;;;;;;;;;;;;;14.94;79.48;100173.97;5090742;28;20488;-84
2023/05/04 09:30:06;;;;;;;;;;;;;;;15.01;78.17;100168.47;5092512;28;20361;-83
2023/05/04 09:32:35;;;;;;;;;;;;;;;15.03;78.07;100158.66;5104136;28;20250;-83
2023/05/04 09:35:01;;;;;;;;;;;;;;;15.05;77.90;100163.94;5092984;28;19916;-84
2023/05/04 09:37:26;;;;;;;;;;;;;;;15.26;77.75;100161.63;5104562;28;19907;-85
2023/05/04 09:39:52;;;;;;;;;;;;;;;15.33;77.34;100160.56;5106332;28;19963;-84
2023/05/04 09:42:19;;;;;;;;;;;;;;;15.45;76.55;100160.22;5090870;28;19915;-84
2023/05/04 09:44:44;;;;;;;;;;;;;;;15.51;75.36;100159.19;5095189;28;19923;-84
2023/05/04 09:47:10;;;;;;;;;;;;;;;15.50;75.57;100152.97;5110373;28;20305;-83
2023/05/04 09:49:36;;;;;;;;;;;;;;;15.48;75.40;100152.16;5108014;28;19958;-84
2023/05/04 09:52:03;;;;;;;;;;;;;;;15.75;74.40;100150.50;5110508;28;19912;-83
2023/05/04 09:54:33;;;;;;;;;;;;;;;15.78;74.02;100159.34;5110540;28;19950;-82
2023/05/04 09:57:05;;;;;;;;;;;;;;;15.69;74.47;100155.13;5110831;28;19911;-82
2023/05/04 09:59:31;;;;;;;;;;;;;;;15.57;74.80;100151.03;5110462;28;19916;-83
2023/05/04 10:01:57;;;;;;;;;;;;;;;15.39;76.20;100153.28;5091672;28;19912;-81
2023/05/04 10:04:22;;;;;;;;;;;;;;;15.38;77.09;100150.66;5110257;28;19923;-81
2023/05/04 10:06:48;;;;;;;;;;;;;;;15.33;77.28;100145.47;5110603;28;19915;-81
2023/05/04 10:09:14;;;;;;;;;;;;;;;15.43;76.66;100142.56;5109617;28;19911;-81
2023/05/04 10:11:41;;;;;;;;;;;;;;;15.51;74.85;100146.75;5110764;28;19912;-82
2023/05/04 10:14:07;;;;;;;;;;;;;;;15.30;76.86;100147.34;5090424;28;19919;-83
2023/05/04 10:16:32;;;;;;;;;;;;;;;15.35;77.71;100133.03;5110503;28;20380;-84
2023/05/04 10:19:07;;;;;;;;;;;;;;;15.32;78.32;100142.84;5110569;28;20035;-83
2023/05/04 10:21:47;;;;;;;;;;;;;;;15.49;78.14;100140.63;5091132;28;20336;-84
2023/05/04 10:24:13;;;;;;;;;;;;;;;15.40;76.92;100133.75;5109522;28;19911;-86
2023/05/04 10:26:44;;;;;;;;;;;;;;;15.67;76.44;100138.34;5110010;28;20002;-85
2023/05/04 10:29:23;;;;;;;;;;;;;;;15.76;76.03;100138.94;5089917;28;19923;-84
2023/05/04 10:31:50;;;;;;;;;;;;;;;15.81;76.27;100137.97;5089883;28;19920;-84
2023/05/04 10:34:25;;;;;;;;;;;;;;;15.81;77.02;100136.16;5088848;28;19973;-85
2023/05/04 10:36:50;;;;;;;;;;;;;;;15.35;78.14;100106.44;5089556;28;19915;-84
2023/05/04 10:39:19;;;;;;;;;;;;;;;15.35;81.62;100125.06;5089454;28;20495;-85
2023/05/04 10:42:03;;;;;;;;;;;;;;;15.45;83.14;100123.00;5089645;28;19923;-85
2023/05/04 10:44:30;;;;;;;;;;;;;;;15.21;85.14;100124.53;5089095;28;19916;-86
2023/05/04 10:47:02;;;;;;;;;;;;;;;15.60;83.51;100123.47;5089849;28;19916;-85
2023/05/04 10:49:28;;;;;;;;;;;;;;;15.42;83.16;100125.75;5089459;28;20350;-85
2023/05/04 10:52:03;;;;;;;;;;;;;;;15.42;81.36;100123.09;5089412;28;19916;-86
2023/05/04 10:54:29;;;;;;;;;;;;;;;15.63;83.69;100118.94;5089202;28;19912;-85
2023/05/04 10:57:08;;;;;;;;;;;;;;;15.60;84.88;100120.81;5089517;28;19914;-85
2023/05/04 10:59:33;;;;;;;;;;;;;;;15.84;86.06;100128.09;5089801;28;19919;-86
2023/05/04 11:02:00;;;;;;;;;;;;;;;15.91;84.49;100129.66;5089785;28;19912;-85
2023/05/04 11:04:25;;;;;;;;;;;;;;;16.06;84.67;100130.97;5089242;28;20428;-85
2023/05/04 11:06:57;;;;;;;;;;;;;;;15.93;85.58;100124.31;5089453;28;19981;-85
2023/05/04 11:09:22;;;;;;;;;;;;;;;16.11;83.21;100118.41;5089163;28;20352;-86
2023/05/04 11:11:48;;;;;;;;;;;;;;;16.17;81.82;100124.47;5089446;28;19916;-85
2023/05/04 11:14:26;;;;;;;;;;;;;;;16.43;80.33;100116.50;5089482;28;20381;-85
2023/05/04 11:16:52;;;;;;;;;;;;;;;16.67;80.49;100113.97;5071048;28;19919;-85
2023/05/04 11:19:17;;;;;;;;;;;;;;;16.48;77.37;100121.69;5089206;28;19935;-87
2023/05/04 11:21:42;;;;;;;;;;;;;;;16.75;77.78;100109.25;5089020;28;20369;-86
2023/05/04 11:24:08;;;;;;;;;;;;;;;16.89;79.29;100116.81;5089180;28;19955;-86
2023/05/04 11:26:44;;;;;;;;;;;;;;;16.91;77.30;100114.09;5092783;28;19915;-88
2023/05/04 11:29:13;;;;;;;;;;;;;;;16.49;76.34;100115.44;5092947;28;20005;-87
2023/05/04 11:31:38;;;;;;;;;;;;;;;16.69;72.11;100114.78;5092564;28;19919;-87
2023/05/04 11:34:05;;;;;;;;;;;;;;;16.94;72.59;100113.97;5074291;28;20015;-87
2023/05/04 11:36:34;;;;;;;;;;;;;;;17.30;69.89;100116.25;5074240;28;20762;-87
2023/05/04 11:38:59;;;;;;;;;;;;;;;17.28;70.36;100113.66;5074564;28;19930;-87
2023/05/04 11:41:25;;;;;;;;;;;;;;;17.48;70.37;100109.41;5092223;28;19918;-89
2023/05/04 11:43:51;;;;;;;;;;;;;;;17.67;70.58;100102.47;5093051;28;19912;-85
2023/05/04 11:46:16;;;;;;;;;;;;;;;17.31;70.56;100105.53;5092126;28;20000;-84
2023/05/04 11:48:42;;;;;;;;;;;;;;;17.53;70.78;100102.97;5092821;28;20461;-85
2023/05/04 11:51:07;;;;;;;;;;;;;;;17.43;71.73;100098.03;5073576;28;19916;-85
2023/05/04 11:53:37;;;;;;;;;;;;;;;17.61;70.59;100093.78;5092701;28;20023;-86
2023/05/04 11:56:02;;;;;;;;;;;;;;;17.44;71.66;100094.41;5074289;28;20305;-84
2023/05/04 11:58:28;;;;;;;;;;;;;;;17.58;70.16;100096.56;5092143;28;19927;-84
2023/05/04 12:00:55;;;;;;;;;;;;;;;17.25;73.20;100096.91;5092837;28;19912;-84
2023/05/04 12:03:25;;;;;;;;;;;;;;;17.33;71.12;100095.72;5091576;28;19926;-84
2023/05/04 12:05:51;;;;;;;;;;;;;;;17.55;69.38;100094.91;5092591;28;19935;-85
2023/05/04 12:08:25;;;;;;;;;;;;;;;17.61;69.34;100088.47;5091531;28;20297;-83
2023/05/04 12:10:50;;;;;;;;;;;;;;;17.63;66.74;100095.50;5091956;28;20286;-85
2023/05/04 12:13:16;;;;;;;;;;;;;;;17.43;68.52;100082.91;5092217;28;20014;-84
2023/05/04 12:15:42;;;;;;;;;;;;;;;17.46;70.19;100084.59;5092196;28;19914;-84
2023/05/04 12:18:07;;;;;;;;;;;;;;;16.90;70.67;100088.34;5091977;28;20001;-85
2023/05/04 12:20:33;;;;;;;;;;;;;;;16.95;73.24;100079.28;5092277;28;19990;-87
2023/05/04 12:23:04;;;;;;;;;;;;;;;17.11;70.89;100076.94;5074017;28;19916;-86
2023/05/04 12:25:29;;;;;;;;;;;;;;;17.33;72.01;100071.72;5073714;28;19938;-84
2023/05/04 12:27:55;;;;;;;;;;;;;;;17.34;71.94;100068.09;5091846;28;19912;-86
2023/05/04 12:30:21;;;;;;;;;;;;;;;16.96;69.97;100073.03;5073250;28;19916;-85